Saint-Jovite, Quebec

1:02 PM EST on February 13, 2016 (GMT -0500)
IQUBECST13 | | Change Station
CLOSE
Current Station
Personal Weather Station
Location: Ste-Agathe-des-Monts, QUBEC
Elevation: 1234 ft
Nearby Weather Stations

Elev 1234 ft 46.05 °N, 74.25 °W | Updated 2 minutes ago

Low Drifting Snow
Low Drifting Snow
-12.6 °F
Feels Like -29 °F
N
7.5
Wind Variable Wind from West
Gusts 13.5 mph

Today is forecast to be nearly the same temperature as yesterday.

Today
High -- | Low -- °F
--% Chance of Precip.
Yesterday
High -- | Low -- °F
Precip. -- in
Pressure 30.11 in
Visibility 45.0 miles
Clouds Few 2000 ft
Few 14000 ft
Few 24000 ft
Windchill -29 °F
Dew Point -20 °F
Humidity 69%
Rainfall 0.00 in
Snow Depth Not available.
7:04 AM 5:20 PM
Waxing Crescent, 32% visible
METAR CYMX 131700Z 26010G19KT 45SM DRSN FEW020 FEW140 FEW240 M24/M32 A3008 RMK CF1AC1CI1 CF TR SLP195
Pressure 30.11 in
Visibility 45.0 miles
Clouds Few 2000 ft
Few 14000 ft
Few 24000 ft
Windchill -29 °F
Dew Point -20 °F
Humidity 69%
Rainfall 0.00 in
Snow Depth Not available.
7:04 AM 5:20 PM
Waxing Crescent, 32% visible
METAR CYMX 131700Z 26010G19KT 45SM DRSN FEW020 FEW140 FEW240 M24/M32 A3008 RMK CF1AC1CI1 CF TR SLP195
Nowcast |

Extreme cold warning in effect

×

10-Day Weather Forecast

Almanac

Astronomy

Feb. 13, 2016 Rise Set
Actual Time
Civil Twilight
Nautical Twilight
Astronomical Twilight
Moon
Length of Visible Light
Length of Day
Tomorrow will be .
, % of the Moon is Illuminated

Today's Extremes

Country Highs Country Lows

Community

WunderPhotos

Upload Photos

1,892,631 photos uploaded!

WunderBlog® & News

Nearby

Air Quality

  Air Quality AQ Index Pollutant
Not available.

Snow Depth

Station Depth Elevation

Earthquake Activity

City Distance Mag. Time & Date
Minimum magnitude displayed is 2.5.

Coastal Water Temperatures

Place Temperature

Stations

Nearby Weather Stations

Station Location Temp. Windchill Dew Point Humidity Wind Precip. Elev Updated Type
                   

Watches & Warnings

There are currently no watches in effect.